TimeEST,TemperatureF,Dew PointF,Humidity,Sea Level PressureIn,VisibilityMPH,Wind Direction,Wind SpeedMPH,Gust SpeedMPH,PrecipitationIn,Events,Conditions,WindDirDegrees,DateUTC
1:31 AM,37.4,32.0,81,29.61,10.0,West,6.9,-,N/A,,Overcast,280,2013-03-03 06:31:00
1:52 AM,37.0,33.1,86,29.62,10.0,WNW,6.9,-,N/A,,Overcast,290,2013-03-03 06:52:00
2:23 AM,37.4,33.8,87,29.61,10.0,NW,8.1,-,N/A,,Overcast,320,2013-03-03 07:23:00
2:52 AM,36.0,34.0,93,29.61,10.0,Variable,4.6,-,0.00,Rain,Light Rain,0,2013-03-03 07:52:00
3:14 AM,35.6,33.8,93,29.60,9.0,Variable,5.8,-,0.00,,Overcast,0,2013-03-03 08:14:00
3:34 AM,35.6,33.8,93,29.60,10.0,Variable,4.6,-,0.00,,Overcast,0,2013-03-03 08:34:00
3:52 AM,36.0,34.0,93,29.60,10.0,Variable,3.5,-,0.00,,Overcast,0,2013-03-03 08:52:00
4:52 AM,36.0,33.1,89,29.61,10.0,NW,6.9,-,N/A,,Overcast,320,2013-03-03 09:52:00
5:52 AM,35.1,28.9,78,29.62,10.0,Variable,4.6,-,N/A,,Overcast,0,2013-03-03 10:52:00
6:52 AM,35.1,28.9,78,29.63,10.0,Variable,4.6,-,N/A,,Overcast,0,2013-03-03 11:52:00
7:52 AM,36.0,28.9,76,29.63,10.0,NW,4.6,-,N/A,,Overcast,310,2013-03-03 12:52:00
8:52 AM,36.0,28.9,76,29.62,10.0,Variable,4.6,-,N/A,,Overcast,0,2013-03-03 13:52:00
9:52 AM,37.0,28.9,73,29.62,10.0,Variable,4.6,-,N/A,,Overcast,0,2013-03-03 14:52:00
10:52 AM,37.0,28.9,73,29.61,10.0,NW,5.8,-,N/A,,Overcast,310,2013-03-03 15:52:00
11:52 AM,37.0,28.9,73,29.60,10.0,Variable,5.8,-,N/A,,Overcast,0,2013-03-03 16:52:00
12:52 PM,37.9,28.9,70,29.59,10.0,Variable,6.9,-,N/A,,Overcast,0,2013-03-03 17:52:00
1:52 PM,37.9,30.0,73,29.58,10.0,SW,8.1,-,N/A,,Overcast,220,2013-03-03 18:52:00
2:52 PM,39.0,28.0,65,29.58,10.0,SW,6.9,-,N/A,,Overcast,220,2013-03-03 19:52:00
3:52 PM,37.9,28.0,68,29.58,10.0,WSW,5.8,-,N/A,,Overcast,240,2013-03-03 20:52:00
4:52 PM,37.0,28.0,70,29.58,10.0,Variable,3.5,-,N/A,,Overcast,0,2013-03-03 21:52:00
5:52 PM,37.0,28.9,73,29.59,10.0,Calm,Calm,-,N/A,,Overcast,0,2013-03-03 22:52:00
6:52 PM,36.0,28.9,76,29.59,10.0,Calm,Calm,-,N/A,,Overcast,0,2013-03-03 23:52:00
7:52 PM,36.0,30.0,79,29.60,10.0,Calm,Calm,-,N/A,,Overcast,0,2013-03-04 00:52:00
8:22 PM,35.6,30.2,81,29.59,10.0,Calm,Calm,-,N/A,,Overcast,0,2013-03-04 01:22:00
8:42 PM,35.6,30.2,81,29.59,10.0,Calm,Calm,-,N/A,,Overcast,0,2013-03-04 01:42:00
8:52 PM,36.0,30.0,79,29.60,10.0,WSW,3.5,-,N/A,,Overcast,240,2013-03-04 01:52:00
9:33 PM,35.6,28.4,75,29.59,10.0,Calm,Calm,-,N/A,,Overcast,0,2013-03-04 02:33:00
9:52 PM,36.0,28.9,76,29.59,10.0,West,3.5,-,N/A,,Overcast,280,2013-03-04 02:52:00
10:52 PM,36.0,28.9,76,29.58,10.0,Variable,6.9,-,N/A,,Overcast,0,2013-03-04 03:52:00
11:52 PM,35.1,32.0,89,29.58,10.0,WNW,5.8,-,0.00,,Overcast,290,2013-03-04 04:52:00